CheckWX is a tool to help pilots better visualize weather data.  It is not intended as a substitute for an official pre-flight weather briefing.

11:29:43 UTC

KDLH METAR
Duluth International Airport
Duluth, Minnesota, USA
Current

21 mins ago

KDLH 181109Z 27005KT 9SM SCT004 BKN041 18/16 A2965 RMK AO2 T01830161
Observed
Aug-18 @ 11:09 UTC
Wind
  • 270° at 5 KTS
Visibility
9 SM
Flight Rules
VFR
Cloud Levels
  • Scattered at 400' AGL
  • Broken at 4,100' AGL
Temperature
18°C / 64°F
Dewpoint
16°C / 61°F
Humidity
88%
Altimeter
29.65" Hg
Pressure
1004.02 hPa
Previous

35 mins ago

KDLH 181055Z 20003KT 10SM FEW070 18/16 A2964 RMK AO2 RAE0956 SLP031 P0000 T01830161
Observed
Aug-18 @ 10:55 UTC
Wind
  • 200° at 3 KTS
Visibility
10 SM
Flight Rules
VFR
Cloud Levels
  • Few at 7,000' AGL
Temperature
18°C / 64°F
Dewpoint
16°C / 61°F
Humidity
88%
Altimeter
29.64" Hg
Pressure
1003.72 hPa
Current Rain
0.01"
Previous

2 hours ago

KDLH 180955Z 09004KT 10SM -RA FEW035 OVC100 18/16 A2965 RMK AO2 SLP033 P0005 T01830161
Observed
Aug-18 @ 09:55 UTC
Wind
  • 090° at 4 KTS
Visibility
10 SM
Flight Rules
VFR
Conditions
Light Rain
Cloud Levels
  • Few at 3,500' AGL
  • Overcast at 10,000' AGL
Temperature
18°C / 64°F
Dewpoint
16°C / 61°F
Humidity
88%
Altimeter
29.65" Hg
Pressure
1004.02 hPa
Current Rain
0.05"